Time;durP1;ratioP1;P1;durP2;ratioP2;P2;SDS_P1;SDS_P2;PMS_P1;PMS_P2;Temp;Humidity;BMP_temperature;BMP_pressure;BME280_temperature;BME280_humidity;BME280_pressure;Samples;Min_cycle;Max_cycle;Signal;HPM_P1;HPM_P2
2023/08/10 00:02:06;;;;;;;;;13.67;13.33;;;;;21.83;57.57;101469.22;5038219;28;45482;-69
2023/08/10 00:04:32;;;;;;;;;13.00;13.00;;;;;21.79;57.01;101464.38;5038145;28;47372;-70
2023/08/10 00:06:58;;;;;;;;;13.67;13.00;;;;;21.80;57.61;101472.31;5038242;28;45326;-69
2023/08/10 00:09:23;;;;;;;;;13.00;10.00;;;;;21.79;57.63;101472.50;5038294;28;45476;-69
2023/08/10 00:11:48;;;;;;;;;10.00;10.00;;;;;21.75;57.63;101469.38;5038434;28;45608;-68
2023/08/10 00:14:14;;;;;;;;;13.67;12.33;;;;;21.70;57.88;101450.19;5037735;28;46310;-69
2023/08/10 00:16:39;;;;;;;;;13.67;11.33;;;;;21.39;57.56;101404.63;5037978;28;45411;-69
2023/08/10 00:19:04;;;;;;;;;10.33;9.00;;;;;21.73;57.76;101462.47;5038051;28;45237;-69
2023/08/10 00:21:30;;;;;;;;;10.67;10.67;;;;;21.67;58.16;101457.88;5038422;28;45328;-68
2023/08/10 00:23:56;;;;;;;;;12.33;12.33;;;;;21.71;58.15;101472.69;5037821;28;46003;-68
2023/08/10 00:26:23;;;;;;;;;12.67;12.67;;;;;21.68;57.85;101464.97;5037961;28;45385;-68
2023/08/10 00:28:49;;;;;;;;;10.33;10.33;;;;;21.68;58.08;101470.38;5037721;28;45838;-69
2023/08/10 00:31:14;;;;;;;;;16.33;13.00;;;;;21.27;58.62;101405.41;5003656;28;45480;-67
2023/08/10 00:33:39;;;;;;;;;12.00;11.00;;;;;21.63;58.28;101465.56;5037525;28;46698;-68
2023/08/10 00:36:06;;;;;;;;;17.67;13.67;;;;;21.41;58.32;101434.19;5019597;28;45527;-69
2023/08/10 00:38:33;;;;;;;;;17.67;12.67;;;;;21.60;58.40;101459.69;5037925;28;45323;-68
2023/08/10 00:40:59;;;;;;;;;14.67;12.67;;;;;21.55;58.31;101447.59;5038204;28;45481;-68
2023/08/10 00:43:24;;;;;;;;;11.33;10.00;;;;;21.48;58.38;101452.16;5037382;28;46705;-68
2023/08/10 00:45:51;;;;;;;;;8.00;8.00;;;;;21.52;57.97;101458.81;5037549;28;45265;-68
2023/08/10 00:48:17;;;;;;;;;8.00;7.00;;;;;21.45;57.94;101457.97;5020161;28;45517;-70
2023/08/10 00:50:43;;;;;;;;;12.00;9.00;;;;;21.45;58.53;101463.38;5037989;28;45602;-69
2023/08/10 00:53:09;;;;;;;;;13.67;12.33;;;;;21.37;58.74;101444.56;5037663;28;46353;-69
2023/08/10 00:55:35;;;;;;;;;8.67;7.00;;;;;21.46;58.46;101465.03;5037469;28;45397;-70
2023/08/10 00:58:00;;;;;;;;;12.33;10.67;;;;;21.51;58.65;101473.38;5037529;28;45303;-70
2023/08/10 01:00:26;;;;;;;;;14.67;9.67;;;;;21.45;58.30;101459.84;5037252;28;45328;-68
2023/08/10 01:02:52;;;;;;;;;7.67;7.67;;;;;21.48;58.01;101467.53;5037217;28;45665;-69
2023/08/10 01:05:17;;;;;;;;;9.33;8.33;;;;;21.43;58.24;101459.19;5037277;28;45315;-69
2023/08/10 01:07:56;;;;;;;;;7.00;5.00;;;;;21.45;58.54;101476.91;5037569;28;45466;-69
2023/08/10 01:10:39;;;;;;;;;11.33;10.67;;;;;21.41;58.63;101472.06;5037650;28;45275;-70
2023/08/10 01:13:18;;;;;;;;;8.00;8.00;;;;;21.43;58.41;101484.38;5037135;28;45881;-69
2023/08/10 01:15:49;;;;;;;;;5.67;5.33;;;;;21.02;58.13;101413.06;5036985;28;45435;-69
2023/08/10 01:18:18;;;;;;;;;10.00;7.00;;;;;21.40;58.04;101484.75;5037214;28;45413;-68
2023/08/10 01:20:47;;;;;;;;;9.00;7.33;;;;;21.32;58.26;101478.66;5037398;28;45239;-69
2023/08/10 01:23:22;;;;;;;;;6.33;6.33;;;;;21.33;58.25;101491.16;5036948;28;45720;-68
2023/08/10 01:25:48;;;;;;;;;6.00;5.00;;;;;21.23;58.29;101472.53;5037103;28;45315;-69
2023/08/10 01:28:14;;;;;;;;;7.33;5.67;;;;;20.93;58.68;101420.50;5037174;28;45569;-69
2023/08/10 01:30:41;;;;;;;;;7.67;5.33;;;;;21.15;58.42;101461.84;5036136;28;45606;-69
2023/08/10 01:33:08;;;;;;;;;6.00;5.00;;;;;21.25;58.04;101489.44;5036557;28;46387;-68
2023/08/10 01:35:35;;;;;;;;;11.67;9.33;;;;;20.74;58.59;101402.25;5018873;28;45628;-69
2023/08/10 01:38:00;;;;;;;;;8.33;6.67;;;;;21.27;58.34;101487.38;5037157;28;45366;-69
2023/08/10 01:40:25;;;;;;;;;7.50;6.75;;;;;21.24;58.39;101487.75;5036371;28;57759;-69
2023/08/10 01:42:51;;;;;;;;;5.00;5.00;;;;;21.20;58.49;101497.25;5036620;28;46326;-69
2023/08/10 01:45:16;;;;;;;;;6.00;6.00;;;;;21.17;58.53;101498.47;5036540;28;45320;-68
2023/08/10 01:48:03;;;;;;;;;6.00;6.00;;;;;21.03;58.46;101471.53;5019052;28;45463;-69
2023/08/10 01:50:34;;;;;;;;;6.00;6.00;;;;;21.15;58.47;101488.88;5037027;28;45593;-68
2023/08/10 01:53:05;;;;;;;;;5.00;5.00;;;;;21.11;58.64;101498.44;5036680;28;45827;-68
2023/08/10 01:55:31;;;;;;;;;5.00;5.00;;;;;21.03;58.89;101490.47;5036873;28;45190;-68
2023/08/10 01:57:56;;;;;;;;;6.00;6.00;;;;;21.06;58.82;101504.44;5036752;28;45452;-68
2023/08/10 02:00:22;;;;;;;;;4.67;4.67;;;;;21.04;58.78;101508.38;5036539;28;45268;-69
2023/08/10 02:02:47;;;;;;;;;7.67;5.33;;;;;21.02;58.86;101510.41;5036314;28;46956;-69
2023/08/10 02:05:14;;;;;;;;;6.00;5.00;;;;;20.94;59.14;101498.69;5036215;28;54687;-69
2023/08/10 02:07:41;;;;;;;;;6.00;6.00;;;;;20.94;59.18;101505.97;5036704;28;45285;-69
2023/08/10 02:10:07;;;;;;;;;9.00;6.00;;;;;20.86;59.79;101501.53;5036709;28;45557;-69
2023/08/10 02:12:32;;;;;;;;;8.00;6.67;;;;;20.79;60.06;101502.47;5036231;28;45766;-69
2023/08/10 02:14:58;;;;;;;;;7.00;7.00;;;;;20.67;60.37;101498.63;5036114;28;45319;-69
2023/08/10 02:17:25;;;;;;;;;7.33;6.33;;;;;20.26;60.39;101431.66;5036601;28;45477;-68
2023/08/10 02:19:51;;;;;;;;;6.33;5.67;;;;;20.69;60.26;101500.13;5036543;28;45526;-69
2023/08/10 02:22:16;;;;;;;;;7.00;7.00;;;;;20.64;60.34;101486.34;5035827;28;54182;-68
2023/08/10 02:24:41;;;;;;;;;10.00;7.00;;;;;20.72;60.02;101494.31;5036294;28;45503;-69
2023/08/10 02:27:07;;;;;;;;;6.00;5.67;;;;;20.72;60.08;101494.31;5036667;28;45371;-68
2023/08/10 02:29:32;;;;;;;;;5.67;5.33;;;;;20.38;60.16;101445.50;5018408;28;45564;-69
2023/08/10 02:31:59;;;;;;;;;2.00;2.00;;;;;20.68;60.26;101487.63;5035987;28;52989;-68
2023/08/10 02:34:24;;;;;;;;;7.67;7.33;;;;;20.68;60.19;101482.22;5018354;28;45467;-68
2023/08/10 02:36:49;;;;;;;;;7.67;7.67;;;;;20.70;60.67;101495.53;5036103;28;47342;-69
2023/08/10 02:39:14;;;;;;;;;8.00;8.00;;;;;20.50;61.28;101468.31;5036518;28;45534;-69
2023/08/10 02:41:40;;;;;;;;;10.00;8.67;;;;;20.64;61.78;101486.34;5018052;28;47278;-69
2023/08/10 02:44:05;;;;;;;;;9.00;9.00;;;;;20.57;61.56;101478.16;5038483;28;45279;-69
2023/08/10 02:46:32;;;;;;;;;11.33;9.33;;;;;20.54;61.74;101475.00;5039793;28;45401;-69
2023/08/10 02:48:57;;;;;;;;;7.00;6.00;;;;;20.59;61.87;101488.75;5039775;28;45358;-69
2023/08/10 02:51:22;;;;;;;;;7.67;7.67;;;;;20.63;61.75;101490.09;5039492;28;46621;-69
2023/08/10 02:53:47;;;;;;;;;11.33;11.33;;;;;20.24;61.91;101431.88;5039350;28;45329;-69
2023/08/10 02:56:13;;;;;;;;;12.67;9.00;;;;;20.60;61.78;101501.25;5021474;28;45446;-68
2023/08/10 02:58:38;;;;;;;;;11.00;9.67;;;;;20.16;62.09;101440.06;5039589;28;45232;-69
2023/08/10 03:01:07;;;;;;;;;8.33;8.33;;;;;20.50;62.11;101504.28;5020675;28;48182;-69
2023/08/10 03:03:33;;;;;;;;;8.00;8.00;;;;;20.32;62.08;101480.34;5039196;28;45390;-69
2023/08/10 03:05:59;;;;;;;;;7.67;7.67;;;;;20.47;61.45;101498.41;5039225;28;45364;-69
2023/08/10 03:08:24;;;;;;;;;9.00;7.00;;;;;20.44;61.03;101486.13;5039401;28;45423;-69
2023/08/10 03:10:50;;;;;;;;;5.33;5.33;;;;;20.47;60.46;101485.75;5020959;28;47047;-68
2023/08/10 03:13:15;;;;;;;;;6.00;6.00;;;;;20.47;60.40;101484.91;5038958;28;45265;-69
2023/08/10 03:15:40;;;;;;;;;7.33;6.33;;;;;20.12;60.22;101422.56;5038104;28;54960;-69
2023/08/10 03:18:06;;;;;;;;;7.33;6.33;;;;;20.44;60.39;101488.84;5039301;28;45579;-70
2023/08/10 03:20:31;;;;;;;;;8.33;6.67;;;;;20.35;59.98;101471.84;5038759;28;46493;-68
2023/08/10 03:22:56;;;;;;;;;5.33;5.00;;;;;20.27;60.55;101458.47;5020421;28;55502;-70
2023/08/10 03:25:22;;;;;;;;;4.67;4.67;;;;;20.17;60.46;101446.28;5039211;28;45470;-69
2023/08/10 03:27:47;;;;;;;;;8.00;8.00;;;;;20.24;60.47;101458.88;5039278;28;45397;-69
2023/08/10 03:30:13;;;;;;;;;7.50;7.00;;;;;20.36;60.77;101483.50;5038001;28;57408;-69
2023/08/10 03:32:38;;;;;;;;;7.00;7.00;;;;;20.12;60.63;101444.19;5038790;28;45545;-69
2023/08/10 03:35:05;;;;;;;;;4.67;4.67;;;;;19.96;60.64;101418.22;5038745;28;45253;-68
2023/08/10 03:37:30;;;;;;;;;4.00;4.00;;;;;20.32;60.24;101476.81;5038968;28;45482;-68
2023/08/10 03:39:55;;;;;;;;;6.00;6.00;;;;;20.28;60.27;101492.56;5038637;28;45871;-67
2023/08/10 03:42:21;;;;;;;;;5.25;5.25;;;;;20.25;60.55;101498.34;5038604;28;45411;-68
2023/08/10 03:44:46;;;;;;;;;8.00;7.00;;;;;20.19;60.09;101482.03;5038438;28;45479;-68
2023/08/10 03:47:11;;;;;;;;;8.00;7.00;;;;;20.23;60.06;101494.16;5038760;28;45202;-67
2023/08/10 03:49:36;;;;;;;;;5.00;5.00;;;;;20.23;60.19;101483.34;5038452;28;47176;-68
2023/08/10 03:52:02;;;;;;;;;5.33;4.67;;;;;20.26;59.94;101485.69;5038153;28;55833;-70
2023/08/10 03:54:29;;;;;;;;;5.33;4.00;;;;;20.24;59.85;101485.03;5037898;28;45296;-68
2023/08/10 03:56:55;;;;;;;;;7.00;7.00;;;;;20.14;60.22;101484.47;5038818;28;45368;-68
2023/08/10 03:59:20;;;;;;;;;10.33;7.67;;;;;20.17;60.22;101494.91;5037745;28;47194;-68
2023/08/10 04:01:45;;;;;;;;;6.00;4.33;;;;;20.22;60.14;101508.66;5037500;28;53019;-68
2023/08/10 04:04:11;;;;;;;;;3.00;2.00;;;;;20.11;60.27;101491.09;5019873;28;56882;-69
2023/08/10 04:06:36;;;;;;;;;5.33;5.33;;;;;20.08;60.41;101494.19;5020102;28;48385;-69
2023/08/10 04:09:04;;;;;;;;;4.33;4.33;;;;;19.89;60.02;101463.19;5038107;28;45267;-69
2023/08/10 04:11:29;;;;;;;;;5.00;3.33;;;;;20.20;60.04;101521.50;5038023;28;45355;-69
2023/08/10 04:13:55;;;;;;;;;8.67;7.00;;;;;19.75;60.27;101443.28;5037759;28;45502;-69
2023/08/10 04:16:21;;;;;;;;;6.00;6.00;;;;;20.11;60.37;101504.59;5038049;28;45415;-68
2023/08/10 04:18:46;;;;;;;;;6.67;5.00;;;;;19.97;60.54;101489.25;5037663;28;46324;-68
2023/08/10 04:21:12;;;;;;;;;7.00;7.00;;;;;20.05;60.48;101508.88;5037996;28;45194;-68
2023/08/10 04:23:37;;;;;;;;;6.00;6.00;;;;;19.82;60.72;101474.91;5038103;28;45398;-70
2023/08/10 04:26:02;;;;;;;;;5.00;5.00;;;;;19.97;60.93;101511.66;5037992;28;45658;-69
2023/08/10 04:28:27;;;;;;;;;7.00;7.00;;;;;19.93;61.16;101518.47;5037509;28;46259;-67
2023/08/10 04:30:53;;;;;;;;;5.00;4.67;;;;;19.90;61.12;101502.66;5037555;28;45344;-68
2023/08/10 04:33:18;;;;;;;;;5.00;4.33;;;;;19.90;61.27;101513.44;5037226;28;58000;-69
2023/08/10 04:35:43;;;;;;;;;7.00;7.00;;;;;19.84;61.34;101505.28;5037767;28;45325;-69
2023/08/10 04:38:10;;;;;;;;;9.67;7.67;;;;;19.80;61.07;101499.38;5037597;28;46641;-69
2023/08/10 04:40:35;;;;;;;;;8.00;6.33;;;;;19.89;61.24;101513.63;5037509;28;45410;-69
2023/08/10 04:43:01;;;;;;;;;5.00;5.00;;;;;19.55;61.06;101466.44;5037451;28;45506;-69
2023/08/10 04:45:26;;;;;;;;;7.67;6.00;;;;;19.91;61.30;101507.03;5037450;28;45404;-69
2023/08/10 04:47:51;;;;;;;;;6.00;6.00;;;;;19.95;60.90;101497.53;5037557;28;45558;-69
2023/08/10 04:50:17;;;;;;;;;6.00;6.00;;;;;19.99;60.99;101508.78;5019864;28;45374;-68
2023/08/10 04:52:43;;;;;;;;;5.00;5.00;;;;;19.94;61.06;101500.41;5037609;28;45550;-69
2023/08/10 04:55:10;;;;;;;;;6.67;6.33;;;;;19.88;60.74;101499.31;5037779;28;45320;-70
2023/08/10 04:57:36;;;;;;;;;4.00;4.00;;;;;19.94;60.77;101514.75;5037395;28;45939;-68
2023/08/10 05:00:08;;;;;;;;;5.33;5.33;;;;;19.87;61.10;101499.50;5037032;28;45186;-69
2023/08/10 05:02:34;;;;;;;;;7.33;6.33;;;;;19.92;61.15;101518.66;5037396;28;45331;-69
2023/08/10 05:04:59;;;;;;;;;6.00;5.00;;;;;19.92;61.17;101500.59;5036799;28;45370;-69
2023/08/10 05:07:24;;;;;;;;;2.67;2.67;;;;;19.92;61.08;101497.91;5037182;28;46243;-69
2023/08/10 05:09:50;;;;;;;;;6.00;6.00;;;;;20.02;60.89;101513.78;5036408;28;62646;-69
2023/08/10 05:12:15;;;;;;;;;8.00;5.00;;;;;19.91;60.54;101503.50;5019229;28;46113;-68
2023/08/10 05:14:40;;;;;;;;;7.33;6.33;;;;;20.04;60.49;101528.81;5036613;28;53107;-68
2023/08/10 05:17:06;;;;;;;;;7.67;7.00;;;;;19.92;60.41;101513.25;5037040;28;46549;-68
2023/08/10 05:19:31;;;;;;;;;6.00;2.00;;;;;19.84;60.18;101510.66;5037061;28;45472;-68
2023/08/10 05:21:56;;;;;;;;;5.00;5.00;;;;;19.92;60.84;101521.34;5037069;28;45355;-68
2023/08/10 05:24:22;;;;;;;;;9.33;7.00;;;;;20.10;60.56;101542.56;5019402;28;45587;-69
2023/08/10 05:26:47;;;;;;;;;7.33;7.33;;;;;20.14;60.71;101539.31;5036205;28;61460;-70
2023/08/10 05:29:12;;;;;;;;;5.33;5.33;;;;;20.20;60.53;101524.22;5036406;28;45270;-68
2023/08/10 05:31:37;;;;;;;;;8.67;7.67;;;;;20.24;60.21;101526.38;5036996;28;45384;-68
2023/08/10 05:34:03;;;;;;;;;8.67;7.00;;;;;20.25;60.08;101513.72;5037272;28;45229;-70
2023/08/10 05:36:28;;;;;;;;;11.67;8.00;;;;;20.16;59.99;101510.25;5036648;28;45445;-69
2023/08/10 05:38:54;;;;;;;;;8.33;6.00;;;;;19.67;60.19;101432.59;5036649;28;57868;-69
2023/08/10 05:41:19;;;;;;;;;9.00;7.00;;;;;20.17;59.92;101514.63;5019165;28;45299;-71
2023/08/10 05:43:44;;;;;;;;;8.00;6.00;;;;;20.12;60.13;101498.16;5018697;28;45528;-69
2023/08/10 05:46:10;;;;;;;;;8.00;7.00;;;;;20.11;59.84;101496.50;5036748;28;46137;-68
2023/08/10 05:48:35;;;;;;;;;11.33;10.00;;;;;20.32;59.44;101525.41;5019140;28;45317;-68
2023/08/10 05:51:00;;;;;;;;;7.00;7.00;;;;;20.27;59.36;101512.50;5017577;28;62912;-69
2023/08/10 05:53:26;;;;;;;;;7.33;6.33;;;;;20.04;59.29;101457.78;5036658;28;45292;-68
2023/08/10 05:55:51;;;;;;;;;6.00;6.00;;;;;20.41;59.34;101507.25;5036426;28;46537;-70
2023/08/10 05:58:17;;;;;;;;;8.00;7.00;;;;;20.36;59.09;101486.19;5036069;28;54456;-69
2023/08/10 06:00:42;;;;;;;;;9.00;8.33;;;;;20.58;58.80;101508.72;5034758;28;52553;-69
2023/08/10 06:03:08;;;;;;;;;11.00;6.75;;;;;20.26;58.67;101434.38;5036356;28;45606;-69
2023/08/10 06:05:33;;;;;;;;;7.67;7.67;;;;;20.75;58.67;101499.34;5036451;28;45539;-69
2023/08/10 06:07:59;;;;;;;;;9.00;9.00;;;;;20.46;58.34;101450.81;5036579;28;45360;-68
2023/08/10 06:10:25;;;;;;;;;6.67;6.67;;;;;20.80;58.32;101499.59;5034400;28;45508;-69
2023/08/10 06:12:51;;;;;;;;;9.00;6.67;;;;;20.90;58.18;101483.91;5036524;28;45415;-67
2023/08/10 06:15:16;;;;;;;;;6.67;6.67;;;;;21.02;57.73;101486.91;5035569;28;45657;-68
2023/08/10 06:17:42;;;;;;;;;6.67;6.33;;;;;21.02;57.43;101462.56;5038565;28;45315;-67
2023/08/10 06:20:13;;;;;;;;;2.33;2.33;;;;;21.20;56.91;101492.66;5039699;28;45304;-68
2023/08/10 06:22:40;;;;;;;;;4.00;4.00;;;;;21.27;56.64;101487.38;5039676;28;45432;-68
2023/08/10 06:25:06;;;;;;;;;3.67;3.00;;;;;21.61;56.42;101483.00;5039497;28;46501;-68
2023/08/10 06:27:33;;;;;;;;;7.67;7.67;;;;;22.17;54.67;101473.75;5039808;28;45452;-69
2023/08/10 06:29:58;;;;;;;;;6.67;5.67;;;;;22.82;53.17;101482.28;5039509;28;45319;-68
2023/08/10 06:32:24;;;;;;;;;5.50;5.50;;;;;23.44;51.42;101474.81;5039780;28;45612;-68
2023/08/10 06:34:49;;;;;;;;;7.00;6.00;;;;;24.01;50.00;101481.34;5039521;28;46414;-68
2023/08/10 06:37:16;;;;;;;;;11.00;8.00;;;;;24.35;48.51;101488.34;5039216;28;45287;-69
2023/08/10 06:39:42;;;;;;;;;3.75;3.75;;;;;24.32;48.54;101481.47;5039439;28;45347;-71
2023/08/10 06:42:07;;;;;;;;;7.50;7.50;;;;;24.27;48.16;101489.41;5039563;28;45421;-71
2023/08/10 06:44:32;;;;;;;;;5.50;4.50;;;;;24.19;48.81;101489.63;5039030;28;46090;-68
2023/08/10 06:46:58;;;;;;;;;7.75;6.00;;;;;24.03;49.05;101468.38;5039095;28;45319;-69
2023/08/10 06:49:23;;;;;;;;;5.00;5.00;;;;;24.17;48.66;101442.84;5039110;28;49317;-68
2023/08/10 06:51:51;;;;;;;;;5.00;5.00;;;;;24.78;47.51;101456.69;5020835;28;47674;-68
2023/08/10 06:54:17;;;;;;;;;7.00;7.00;;;;;25.37;46.52;101463.56;5037771;28;46966;-69
2023/08/10 06:56:43;;;;;;;;;7.00;6.50;;;;;25.84;45.20;101444.06;5038548;28;45486;-69
2023/08/10 06:59:08;;;;;;;;;5.25;5.25;;;;;26.02;44.54;101452.19;5038920;28;45283;-68
2023/08/10 07:01:34;;;;;;;;;5.50;5.25;;;;;26.04;44.54;101455.53;5039188;28;45268;-68
2023/08/10 07:03:59;;;;;;;;;5.75;5.75;;;;;25.98;44.72;101461.88;5020562;28;47457;-69
2023/08/10 07:06:26;;;;;;;;;5.00;5.00;;;;;25.87;45.10;101459.94;5038810;28;45558;-69
2023/08/10 07:08:52;;;;;;;;;5.00;5.00;;;;;25.34;45.11;101387.78;5038938;28;45288;-69
2023/08/10 07:11:19;;;;;;;;;6.00;6.00;;;;;25.55;45.57;101453.75;5039108;28;45588;-69
2023/08/10 07:13:46;;;;;;;;;6.67;5.67;;;;;25.32;45.51;101429.91;5038099;28;46143;-70
2023/08/10 07:16:11;;;;;;;;;4.00;4.00;;;;;25.27;45.50;101443.38;5038716;28;45436;-69
2023/08/10 07:18:36;;;;;;;;;4.50;4.50;;;;;25.14;46.14;101439.72;5038573;28;45213;-68
2023/08/10 07:21:02;;;;;;;;;6.00;5.50;;;;;25.17;45.90;101444.69;5038600;28;45385;-69
2023/08/10 07:23:28;;;;;;;;;5.00;5.00;;;;;25.21;45.51;101444.25;5038372;28;45619;-69
2023/08/10 07:25:54;;;;;;;;;4.25;4.25;;;;;25.14;45.92;101408.94;5038492;28;45346;-66
2023/08/10 07:28:23;;;;;;;;;9.00;6.00;;;;;25.34;45.09;101416.91;5037701;28;45305;-68
2023/08/10 07:30:48;;;;;;;;;4.00;4.00;;;;;25.95;44.80;101471.34;5038192;28;45466;-68
2023/08/10 07:33:13;;;;;;;;;6.00;6.00;;;;;26.24;43.89;101475.19;5038316;28;46225;-68
2023/08/10 07:35:39;;;;;;;;;7.00;5.33;;;;;26.48;43.42;101494.41;5037914;28;51514;-68
2023/08/10 07:38:04;;;;;;;;;5.67;5.67;;;;;26.63;42.86;101501.09;5038358;28;45474;-68
2023/08/10 07:40:30;;;;;;;;;6.67;6.00;;;;;26.83;43.32;101508.13;5038244;28;45292;-69
2023/08/10 07:42:55;;;;;;;;;8.33;6.00;;;;;26.84;43.29;101516.13;5038264;28;46439;-68
2023/08/10 07:45:20;;;;;;;;;2.67;2.67;;;;;26.93;43.75;101511.97;5038103;28;45267;-68
2023/08/10 07:47:45;;;;;;;;;5.00;5.00;;;;;27.08;42.97;101514.31;5020263;28;45310;-69
2023/08/10 07:50:11;;;;;;;;;4.33;4.33;;;;;27.08;41.73;101510.75;5037725;28;49135;-68
2023/08/10 07:52:36;;;;;;;;;5.00;5.00;;;;;27.10;41.97;101523.09;5038144;28;46962;-67
2023/08/10 07:55:02;;;;;;;;;2.50;2.50;;;;;27.10;42.30;101514.06;5037652;28;45240;-69
2023/08/10 07:57:27;;;;;;;;;5.25;4.25;;;;;27.05;42.65;101492.94;5038169;28;45186;-68
2023/08/10 07:59:52;;;;;;;;;8.67;8.67;;;;;27.17;41.43;101515.59;5038017;28;45415;-67
2023/08/10 08:02:18;;;;;;;;;5.50;3.75;;;;;27.01;42.00;101482.69;5019927;28;48951;-68
2023/08/10 08:04:43;;;;;;;;;6.75;5.50;;;;;27.18;41.47;101505.53;5037812;28;45245;-68
2023/08/10 08:07:08;;;;;;;;;4.00;4.00;;;;;27.09;42.21;101493.28;5037992;28;45419;-69
2023/08/10 08:09:34;;;;;;;;;4.00;4.00;;;;;27.25;42.02;101509.81;5038257;28;45150;-69
2023/08/10 08:11:59;;;;;;;;;3.50;3.50;;;;;27.22;41.44;101512.16;5037931;28;45718;-69
2023/08/10 08:14:24;;;;;;;;;6.00;4.00;;;;;27.26;41.53;101518.84;5018411;28;65727;-69
2023/08/10 08:16:50;;;;;;;;;3.67;3.67;;;;;27.19;40.97;101529.84;5019964;28;45310;-68
2023/08/10 08:19:15;;;;;;;;;3.67;3.67;;;;;27.18;42.07;101532.81;5038030;28;45645;-68
2023/08/10 08:21:40;;;;;;;;;4.00;4.00;;;;;27.07;41.61;101525.47;5037306;28;46455;-68
2023/08/10 08:24:06;;;;;;;;;4.33;4.33;;;;;27.01;41.78;101531.84;5037452;28;45335;-69
2023/08/10 08:26:32;;;;;;;;;4.67;4.67;;;;;27.04;42.03;101534.94;5037860;28;45426;-68
2023/08/10 08:28:58;;;;;;;;;3.00;3.00;;;;;27.09;41.69;101539.69;5037563;28;45246;-68
2023/08/10 08:31:25;;;;;;;;;5.00;5.00;;;;;27.04;42.11;101547.75;5037206;28;45536;-68
2023/08/10 08:33:51;;;;;;;;;3.00;3.00;;;;;26.94;40.94;101531.91;5037329;28;45327;-68
2023/08/10 08:36:17;;;;;;;;;4.67;4.67;;;;;26.57;41.82;101514.81;5037264;28;45296;-69
2023/08/10 08:38:42;;;;;;;;;3.00;2.00;;;;;26.53;42.85;101527.25;5037623;28;45241;-68
2023/08/10 08:41:09;;;;;;;;;4.50;4.50;;;;;26.47;43.18;101526.28;5018902;28;47910;-68
2023/08/10 08:43:35;;;;;;;;;5.33;4.00;;;;;26.42;43.23;101525.28;5037159;28;45229;-68
2023/08/10 08:46:02;;;;;;;;;2.33;2.33;;;;;26.43;43.62;101525.09;5036938;28;45387;-69
2023/08/10 08:48:28;;;;;;;;;3.33;3.33;;;;;26.43;43.81;101511.47;5037182;28;45474;-69
2023/08/10 08:50:54;;;;;;;;;4.00;4.00;;;;;26.49;43.47;101517.88;5036617;28;45601;-69
2023/08/10 08:53:20;;;;;;;;;4.75;4.50;;;;;26.14;44.03;101454.97;5036996;28;45580;-68
2023/08/10 08:55:46;;;;;;;;;2.25;2.25;;;;;26.03;44.30;101426.63;5037025;28;45229;-68
2023/08/10 08:58:14;;;;;;;;;3.25;3.25;;;;;26.40;44.44;101500.16;5037509;28;45445;-69
2023/08/10 09:00:46;;;;;;;;;4.33;4.00;;;;;26.29;44.42;101488.13;5036536;28;45836;-68
2023/08/10 09:03:11;;;;;;;;;5.75;4.00;;;;;26.23;44.67;101487.16;5036702;28;45394;-69
2023/08/10 09:05:37;;;;;;;;;3.50;2.75;;;;;26.27;44.92;101479.34;5036874;28;45272;-69
2023/08/10 09:08:03;;;;;;;;;5.00;4.67;;;;;26.04;44.72;101444.63;5037232;28;45439;-68
2023/08/10 09:10:29;;;;;;;;;7.00;5.33;;;;;25.61;45.00;101401.94;5036608;28;46576;-69
2023/08/10 09:12:54;;;;;;;;;5.33;4.33;;;;;26.04;45.43;101470.00;5036707;28;45256;-68
2023/08/10 09:15:20;;;;;;;;;2.00;2.00;;;;;26.04;45.19;101453.66;5036303;28;45628;-69
2023/08/10 09:17:49;;;;;;;;;4.00;4.00;;;;;25.98;45.23;101457.25;5037358;28;45354;-70
2023/08/10 09:20:25;;;;;;;;;3.25;3.25;;;;;26.02;45.59;101449.47;5036620;28;47136;-68
2023/08/10 09:22:53;;;;;;;;;6.50;5.00;;;;;26.04;45.85;101450.09;5018594;28;46489;-68
2023/08/10 09:25:19;;;;;;;;;5.00;4.75;;;;;26.02;45.85;101444.00;5036751;28;45512;-69
2023/08/10 09:27:47;;;;;;;;;4.75;3.50;;;;;26.03;45.59;101441.09;5036976;28;45206;-69
2023/08/10 09:30:13;;;;;;;;;3.75;3.75;;;;;26.00;45.61;101449.69;5035986;28;46705;-69
2023/08/10 09:32:39;;;;;;;;;4.50;3.25;;;;;26.07;45.24;101449.63;5036368;28;45526;-68
2023/08/10 09:35:05;;;;;;;;;5.33;4.33;;;;;26.10;45.35;101460.06;5036563;28;45328;-68
2023/08/10 09:37:31;;;;;;;;;6.00;4.50;;;;;26.01;45.05;101447.78;5036560;28;45443;-68
2023/08/10 09:40:00;;;;;;;;;4.00;4.00;;;;;25.96;45.20;101436.75;5036206;28;46442;-69
2023/08/10 09:42:30;;;;;;;;;4.00;4.00;;;;;26.19;45.78;101455.94;5036271;28;45561;-69
2023/08/10 09:44:57;;;;;;;;;3.00;3.00;;;;;26.14;45.64;101450.34;5036181;28;45373;-68
2023/08/10 09:47:23;;;;;;;;;4.50;3.75;;;;;26.18;45.63;101462.47;5036672;28;45205;-67
2023/08/10 09:49:55;;;;;;;;;8.00;5.00;;;;;26.32;45.94;101458.50;5035938;28;54541;-69
2023/08/10 09:52:24;;;;;;;;;6.67;6.33;;;;;25.82;44.98;101348.06;5038339;28;45363;-69
2023/08/10 09:54:50;;;;;;;;;4.00;3.00;;;;;26.59;44.33;101453.53;5040181;28;45241;-69
2023/08/10 09:57:18;;;;;;;;;4.25;4.25;;;;;26.57;44.30;101441.19;5040038;28;45389;-69
2023/08/10 09:59:45;;;;;;;;;5.00;5.00;;;;;26.50;44.85;101448.66;5021339;28;48545;-70
2023/08/10 10:02:13;;;;;;;;;4.00;4.00;;;;;26.43;44.89;101442.44;5039577;28;45281;-69
2023/08/10 10:04:39;;;;;;;;;0.75;0.75;;;;;25.99;45.14;101379.06;5039688;28;45311;-69
2023/08/10 10:07:06;;;;;;;;;4.25;4.25;;;;;26.29;45.06;101437.16;5039856;28;45419;-68
2023/08/10 10:09:34;;;;;;;;;3.25;3.25;;;;;26.22;45.28;101430.13;5039753;28;47747;-69
2023/08/10 10:12:00;;;;;;;;;4.25;4.25;;;;;26.18;45.70;101418.84;5039514;28;45617;-69
2023/08/10 10:14:27;;;;;;;;;5.00;5.00;;;;;26.20;46.14;101416.72;5039297;28;45575;-68
2023/08/10 10:16:53;;;;;;;;;5.50;4.25;;;;;26.15;45.69;101424.75;5039885;28;45224;-68
2023/08/10 10:19:20;;;;;;;;;4.00;4.00;;;;;26.09;46.12;101414.78;5039434;28;46666;-69
2023/08/10 10:21:47;;;;;;;;;4.25;4.00;;;;;26.10;46.04;101415.63;5039404;28;45516;-69
2023/08/10 10:24:13;;;;;;;;;11.50;10.50;;;;;26.04;46.43;101406.50;5039477;28;45323;-69
2023/08/10 10:26:38;;;;;;;;;5.00;5.00;;;;;26.06;46.54;101420.72;5039864;28;45446;-69
2023/08/10 10:29:16;;;;;;;;;7.00;7.00;;;;;26.00;47.07;101417.00;5038840;28;47506;-70
2023/08/10 10:31:41;;;;;;;;;3.00;3.00;;;;;26.02;47.30;101425.75;5039275;28;45268;-69
2023/08/10 10:34:12;;;;;;;;;3.50;3.00;;;;;26.04;47.14;101411.94;5039328;28;45347;-68
2023/08/10 10:36:38;;;;;;;;;3.50;2.25;;;;;26.09;47.13;101406.63;5039396;28;45568;-69
2023/08/10 10:39:11;;;;;;;;;4.00;4.00;;;;;26.14;47.47;101398.56;5039075;28;45607;-70
2023/08/10 10:41:40;;;;;;;;;3.00;3.00;;;;;26.14;47.02;101395.84;5039056;28;45429;-68
2023/08/10 10:44:08;;;;;;;;;11.33;9.00;;;;;26.15;47.33;101392.06;5038695;28;45358;-69
2023/08/10 10:46:33;;;;;;;;;3.75;3.75;;;;;26.22;47.09;101381.88;5039056;28;45257;-69
2023/08/10 10:49:00;;;;;;;;;3.75;3.75;;;;;26.27;47.03;101382.03;5021060;28;48511;-68
2023/08/10 10:51:26;;;;;;;;;3.00;3.00;;;;;26.12;46.63;101345.38;5039000;28;45273;-69
2023/08/10 10:53:55;;;;;;;;;2.50;2.50;;;;;26.26;46.52;101374.94;5021057;28;45504;-69
2023/08/10 10:56:21;;;;;;;;;3.00;3.00;;;;;26.21;46.19;101374.78;5038777;28;45576;-69
2023/08/10 10:58:47;;;;;;;;;2.25;2.25;;;;;26.22;46.36;101376.44;5004143;28;46772;-68
2023/08/10 11:01:17;;;;;;;;;2.25;2.25;;;;;26.16;46.23;101361.00;5038814;28;45249;-69
2023/08/10 11:03:51;;;;;;;;;2.25;2.25;;;;;26.26;46.18;101383.09;5037714;28;45491;-69
2023/08/10 11:06:18;;;;;;;;;4.25;4.25;;;;;26.21;46.23;101382.94;5039292;28;45458;-69
2023/08/10 11:08:51;;;;;;;;;5.00;2.75;;;;;26.15;46.14;101374.88;5020646;28;48861;-69
2023/08/10 11:11:17;;;;;;;;;4.00;4.00;;;;;26.26;46.10;101383.09;5021800;28;46114;-68
2023/08/10 11:13:42;;;;;;;;;2.75;2.75;;;;;26.27;45.89;101384.78;5038913;28;45338;-70
2023/08/10 11:16:09;;;;;;;;;2.75;2.75;;;;;26.38;46.16;101383.16;5038986;28;45550;-69
2023/08/10 11:18:36;;;;;;;;;3.00;3.00;;;;;26.49;46.36;101381.53;5038667;28;45693;-69
2023/08/10 11:21:06;;;;;;;;;3.00;3.00;;;;;26.33;46.38;101353.00;5020700;28;45361;-70